Kezdőlap
METAR-TAF:

METAR-TAF

Repülőterek :

Wattay nemzetközi repülőtér

Vientián, Laosz

földrajzi szélesség: 17-57N, földrajzi hosszúság: 102-34E, magasság: 171 m

Jelenlegi meteorológiai megfigyelések

A jelentés 39 perccel ezelõtt készült, 03:00 UTC
Északkeleti szél 2 kt
Hőmérséklet 22°C
Páratartalom 65%
Légköri nyomás 1020 hPa
Látótávolság: 6000 m

METAR: VLVT 230300Z 04002KT 6000 NSC 22/15 Q1020 NOSIG

Idő: 10:39 (03:39 UTC)

Előrejelzés

A jelentés 4 órával és 39 perccel ezelõtt készült, 23:00 UTC
Az előrejelzés 23-én 00 óra UTC és 23-én 24 óra UTC között érvényes
Keleti szél 4 kt
Látótávolság: 8000 m
Kevés felhő 2000 lábon
Szórványos felhőzet 5000 lábon
Szakadozott felhőzet 10000 lábon

TAF: VLVT 222300Z 2300/2324 09004KT 8000 FEW020 SCT050 BKN100

Meteorológiai megfigyelések és előrejelzések több, mint 4000 repülőtéren (METAR és TAF jelentéseket).

A térképen piros és sárga pontok jelzik az elérhető meteorológiai állomásokat.

Mozgassa az egeret a pont fölött, hogy megjelenjen az állomás neve.

Azután kattintson az időjárási megfigyelések és előrejelzések megtekintéséhez.

A térkép megváltoztatása: kattintson a fekete keresztel jelölt zöld gombra ráközelítéshez, a vonallal jelölt zöld gombra távolításhoz, vagy a zöld nyilakra a szomszédos térképek eléréséhez.


METAR-TAF: